Time;durP1;ratioP1;P1;durP2;ratioP2;P2;SDS_P1;SDS_P2;PMS_P1;PMS_P2;Temp;Humidity;BMP_temperature;BMP_pressure;BME280_temperature;BME280_humidity;BME280_pressure;Samples;Min_cycle;Max_cycle;Signal;HPM_P1;HPM_P2
2021/06/20 00:00:33;;;;;;;7.25;1.27;;;11.40;99.90;;;;;;5090535;28;20379;-91
2021/06/20 00:03:01;;;;;;;6.95;1.38;;;11.40;99.90;;;;;;5092312;28;20453;-96
2021/06/20 00:05:37;;;;;;;6.50;1.43;;;11.30;99.90;;;;;;5096078;28;20448;-95
2021/06/20 00:08:05;;;;;;;5.95;1.33;;;11.40;99.90;;;;;;5096243;28;20793;-93
2021/06/20 00:10:34;;;;;;;5.57;1.30;;;11.50;99.90;;;;;;5093507;28;20390;-95
2021/06/20 00:13:02;;;;;;;6.15;1.20;;;11.50;99.90;;;;;;5087759;28;20774;-96
2021/06/20 00:15:31;;;;;;;6.22;1.30;;;11.60;99.90;;;;;;5090476;28;20377;-93
2021/06/20 00:17:58;;;;;;;7.53;1.38;;;11.80;99.90;;;;;;5074440;28;20381;-92
2021/06/20 00:20:28;;;;;;;7.95;1.10;;;11.90;99.90;;;;;;5093648;28;20397;-94
2021/06/20 00:22:55;;;;;;;7.10;1.45;;;12.00;99.90;;;;;;5086041;28;20404;-91
2021/06/20 00:25:24;;;;;;;8.52;1.60;;;12.00;99.90;;;;;;5093747;28;20411;-95
2021/06/20 00:27:51;;;;;;;4.50;1.20;;;11.90;99.90;;;;;;5092796;28;20891;-93
2021/06/20 00:30:21;;;;;;;4.47;1.10;;;11.90;99.90;;;;;;5092474;28;20901;-91
2021/06/20 00:32:49;;;;;;;9.18;1.50;;;11.90;99.90;;;;;;5094237;28;20416;-93
2021/06/20 00:35:17;;;;;;;5.32;0.93;;;11.90;99.90;;;;;;5092716;28;20440;-93
2021/06/20 00:37:44;;;;;;;4.45;1.10;;;11.90;99.90;;;;;;5096899;28;20388;-94
2021/06/20 00:40:12;;;;;;;5.57;1.02;;;11.90;99.90;;;;;;5107715;28;20457;-90
2021/06/20 00:42:40;;;;;;;5.75;1.23;;;11.90;99.90;;;;;;5092626;28;20905;-89
2021/06/20 00:45:08;;;;;;;6.15;1.23;;;11.90;99.90;;;;;;5092822;28;20373;-94
2021/06/20 00:47:35;;;;;;;5.43;1.35;;;11.90;99.90;;;;;;5092265;28;20404;-94
2021/06/20 00:50:06;;;;;;;5.77;1.17;;;12.00;99.90;;;;;;5094302;28;20401;-91
2021/06/20 00:52:36;;;;;;;7.25;1.45;;;12.10;99.90;;;;;;5083609;28;20415;-92
2021/06/20 00:55:05;;;;;;;3.75;1.30;;;12.10;99.90;;;;;;5095062;28;20388;-92
2021/06/20 00:57:33;;;;;;;5.68;1.20;;;12.10;99.90;;;;;;5088123;28;20400;-95
2021/06/20 01:00:01;;;;;;;5.57;1.42;;;12.10;99.90;;;;;;5096073;28;20392;-92
2021/06/20 01:02:28;;;;;;;6.60;1.55;;;12.10;99.90;;;;;;5098436;28;20372;-96
2021/06/20 01:04:55;;;;;;;6.10;1.40;;;12.20;99.90;;;;;;5108844;28;20537;-88
2021/06/20 01:07:23;;;;;;;6.28;1.30;;;12.20;99.90;;;;;;5127029;27;20430;-95
2021/06/20 01:09:51;;;;;;;5.80;1.40;;;12.30;99.90;;;;;;5103026;27;20807;-93
2021/06/20 01:12:20;;;;;;;7.55;1.40;;;12.30;99.90;;;;;;5099720;28;20781;-89
2021/06/20 01:14:48;;;;;;;5.75;1.40;;;12.30;99.90;;;;;;5096102;28;20386;-93
2021/06/20 01:17:16;;;;;;;5.10;1.10;;;12.20;99.90;;;;;;5096787;28;20384;-93
2021/06/20 01:19:44;;;;;;;7.00;1.15;;;12.20;99.90;;;;;;5097321;28;20428;-94
2021/06/20 01:22:30;;;;;;;5.53;1.23;;;12.20;99.90;;;;;;5100877;28;20473;-93
2021/06/20 01:25:04;;;;;;;5.18;1.17;;;12.20;99.90;;;;;;5092262;28;20470;-91
2021/06/20 01:27:38;;;;;;;6.88;1.05;;;12.20;99.90;;;;;;5081138;28;20410;-89
2021/06/20 01:30:07;;;;;;;5.30;1.23;;;12.20;99.90;;;;;;5084852;28;20389;-88
2021/06/20 01:32:35;;;;;;;7.03;1.10;;;12.30;99.90;;;;;;5090695;28;20765;-89
2021/06/20 01:35:02;;;;;;;5.95;1.20;;;12.30;99.90;;;;;;5083046;28;20891;-86
2021/06/20 01:37:29;;;;;;;4.85;1.30;;;12.20;99.90;;;;;;5087102;28;20412;-89
2021/06/20 01:39:57;;;;;;;7.10;1.40;;;12.10;99.90;;;;;;5081054;28;20400;-87
2021/06/20 01:42:24;;;;;;;8.63;1.43;;;12.00;99.90;;;;;;5081334;28;20495;-90
2021/06/20 01:44:59;;;;;;;11.23;1.80;;;11.90;99.90;;;;;;5090497;28;20431;-87
2021/06/20 01:47:27;;;;;;;7.70;1.33;;;11.90;99.90;;;;;;5088432;28;20416;-88
2021/06/20 01:49:56;;;;;;;11.00;1.80;;;11.90;99.90;;;;;;5097808;28;20499;-87
2021/06/20 01:52:25;;;;;;;10.27;1.90;;;11.90;99.90;;;;;;5085469;28;20403;-86
2021/06/20 01:54:53;;;;;;;10.02;2.50;;;11.80;99.90;;;;;;5095027;28;20368;-86
2021/06/20 01:57:28;;;;;;;10.75;2.38;;;11.80;99.90;;;;;;5107191;28;20401;-89
2021/06/20 01:59:57;;;;;;;8.32;2.03;;;11.80;99.90;;;;;;5107559;27;20952;-89
2021/06/20 02:02:26;;;;;;;15.25;2.30;;;11.80;99.90;;;;;;5077679;28;20761;-89
2021/06/20 02:04:55;;;;;;;12.93;2.28;;;11.80;99.90;;;;;;5077459;28;20399;-88
2021/06/20 02:07:23;;;;;;;9.15;1.88;;;11.70;99.90;;;;;;5084156;28;20748;-88
2021/06/20 02:09:50;;;;;;;10.52;1.95;;;11.80;99.90;;;;;;5082703;28;20790;-84
2021/06/20 02:12:20;;;;;;;11.75;1.77;;;11.90;99.90;;;;;;5085542;28;20427;-87
2021/06/20 02:14:46;;;;;;;10.77;1.75;;;12.00;99.90;;;;;;5087142;28;20399;-89
2021/06/20 02:17:23;;;;;;;9.18;1.88;;;12.10;99.90;;;;;;5082903;28;20395;-86
2021/06/20 02:19:52;;;;;;;8.70;1.60;;;12.00;99.90;;;;;;5092318;28;20905;-89
2021/06/20 02:22:20;;;;;;;11.60;2.20;;;12.00;99.90;;;;;;5090116;28;20402;-89
2021/06/20 02:24:47;;;;;;;9.35;1.85;;;12.00;99.90;;;;;;5091441;28;20390;-87
2021/06/20 02:27:15;;;;;;;10.02;1.83;;;12.00;99.90;;;;;;5090988;28;20392;-87
2021/06/20 02:29:44;;;;;;;12.27;2.40;;;12.00;99.90;;;;;;5090923;28;20945;-88
2021/06/20 02:32:12;;;;;;;10.88;1.60;;;12.00;99.90;;;;;;5093179;28;20383;-84
2021/06/20 02:34:40;;;;;;;9.50;1.50;;;12.10;99.90;;;;;;5092807;28;20380;-86
2021/06/20 02:37:08;;;;;;;5.85;1.95;;;12.30;99.90;;;;;;5105108;28;20873;-86
2021/06/20 02:39:36;;;;;;;9.50;1.75;;;12.50;99.90;;;;;;5098826;28;20936;-85
2021/06/20 02:42:04;;;;;;;7.90;1.57;;;12.80;99.90;;;;;;5096031;28;20837;-89
2021/06/20 02:44:31;;;;;;;7.50;1.80;;;12.90;99.90;;;;;;5090888;28;20863;-89
2021/06/20 02:47:01;;;;;;;11.23;1.80;;;13.00;99.90;;;;;;5098656;28;20505;-89
2021/06/20 02:49:29;;;;;;;6.70;1.80;;;13.00;99.90;;;;;;5101114;28;20386;-89
2021/06/20 02:51:56;;;;;;;8.43;1.38;;;13.00;99.90;;;;;;5105656;28;20812;-88
2021/06/20 02:54:24;;;;;;;7.68;1.55;;;13.00;99.90;;;;;;5080903;28;20390;-90
2021/06/20 02:56:51;;;;;;;7.97;1.38;;;13.00;99.90;;;;;;5087266;28;20861;-89
2021/06/20 02:59:18;;;;;;;7.20;1.40;;;13.10;99.90;;;;;;5088731;28;20441;-90
2021/06/20 03:01:45;;;;;;;5.95;1.30;;;13.10;99.90;;;;;;5080400;28;20878;-90
2021/06/20 03:04:12;;;;;;;8.80;1.60;;;13.10;99.90;;;;;;5089174;28;20431;-89
2021/06/20 03:06:40;;;;;;;8.27;1.48;;;13.10;99.90;;;;;;5080465;28;20506;-89
2021/06/20 03:09:08;;;;;;;7.10;1.35;;;13.00;99.90;;;;;;5082510;28;20406;-90
2021/06/20 03:11:41;;;;;;;4.20;1.30;;;12.90;99.90;;;;;;5069599;28;20371;-90
2021/06/20 03:14:15;;;;;;;9.48;1.80;;;12.80;99.90;;;;;;5081462;28;20404;-92
2021/06/20 03:16:43;;;;;;;7.13;1.48;;;12.80;99.90;;;;;;5082256;28;20398;-92
2021/06/20 03:19:11;;;;;;;5.00;1.30;;;12.80;99.90;;;;;;5070631;28;20379;-88
2021/06/20 03:21:38;;;;;;;4.82;1.10;;;12.80;99.90;;;;;;5088568;28;20393;-91
2021/06/20 03:24:06;;;;;;;6.53;1.30;;;13.00;99.90;;;;;;5097736;28;20505;-91
2021/06/20 03:26:33;;;;;;;5.32;1.20;;;13.10;99.90;;;;;;5089443;28;20407;-93
2021/06/20 03:29:01;;;;;;;5.22;1.35;;;13.10;99.90;;;;;;5086333;28;21051;-95
2021/06/20 03:31:36;;;;;;;6.32;1.25;;;13.20;99.90;;;;;;5095365;28;20384;-92
2021/06/20 03:34:03;;;;;;;7.88;1.45;;;13.30;99.90;;;;;;5086657;28;20471;-91
2021/06/20 03:36:30;;;;;;;6.95;1.33;;;13.50;99.90;;;;;;5089417;28;20430;-94
2021/06/20 03:38:57;;;;;;;5.70;1.20;;;13.60;99.90;;;;;;5089752;28;20890;-92
2021/06/20 03:41:24;;;;;;;5.30;1.17;;;13.50;99.90;;;;;;5089816;28;20479;-91
2021/06/20 03:43:52;;;;;;;4.55;1.10;;;13.50;99.90;;;;;;5091478;28;20388;-90
2021/06/20 03:46:19;;;;;;;7.32;1.40;;;13.40;99.90;;;;;;5090923;28;20384;-92
2021/06/20 03:48:46;;;;;;;5.17;1.10;;;13.40;99.90;;;;;;5090898;28;20812;-95
2021/06/20 03:51:14;;;;;;;4.65;0.90;;;13.50;99.90;;;;;;5098911;28;20742;-91
2021/06/20 03:53:44;;;;;;;6.55;1.42;;;13.60;99.90;;;;;;5091360;28;20459;-90
2021/06/20 03:56:11;;;;;;;6.85;1.25;;;13.80;99.90;;;;;;5091771;28;20396;-92
2021/06/20 03:58:39;;;;;;;6.90;1.10;;;13.80;99.90;;;;;;5097072;28;20384;-94
2021/06/20 04:01:05;;;;;;;8.80;1.40;;;13.70;99.90;;;;;;5093526;28;20364;-94
2021/06/20 04:03:32;;;;;;;6.68;1.27;;;13.70;99.90;;;;;;5095753;28;20487;-95
2021/06/20 04:05:59;;;;;;;8.07;1.55;;;13.60;99.90;;;;;;5081407;28;20378;-91
2021/06/20 04:08:28;;;;;;;7.15;1.63;;;13.30;99.90;;;;;;5083067;28;20428;-96
2021/06/20 04:10:55;;;;;;;5.50;1.48;;;13.20;99.90;;;;;;5095312;28;20380;-92
2021/06/20 04:13:22;;;;;;;7.03;1.63;;;13.20;99.90;;;;;;5092685;28;20478;-91
2021/06/20 04:15:49;;;;;;;6.85;1.50;;;13.10;99.90;;;;;;5084082;28;20387;-93
2021/06/20 04:18:16;;;;;;;4.47;1.30;;;13.10;99.90;;;;;;5093247;28;20420;-94
2021/06/20 04:20:43;;;;;;;3.93;1.00;;;13.00;99.90;;;;;;5086540;28;20384;-92
2021/06/20 04:23:10;;;;;;;6.00;1.10;;;12.90;99.90;;;;;;5097442;28;20804;-91
2021/06/20 04:25:37;;;;;;;5.00;0.90;;;12.90;99.90;;;;;;5096319;28;20894;-88
2021/06/20 04:28:04;;;;;;;4.10;1.15;;;12.80;99.90;;;;;;5087698;28;20807;-87
2021/06/20 04:30:32;;;;;;;5.55;1.35;;;12.70;99.90;;;;;;5085235;28;22203;-87
2021/06/20 04:32:59;;;;;;;7.20;1.30;;;12.60;99.90;;;;;;5088463;28;20460;-89
2021/06/20 04:35:27;;;;;;;6.20;1.30;;;12.50;99.90;;;;;;5088509;28;20873;-88
2021/06/20 04:37:54;;;;;;;3.60;1.10;;;12.40;99.90;;;;;;5084023;28;20426;-89
2021/06/20 04:40:22;;;;;;;4.22;1.00;;;12.30;99.90;;;;;;5087853;28;20391;-88
2021/06/20 04:42:56;;;;;;;3.28;0.98;;;12.30;99.90;;;;;;5086164;28;20443;-85
2021/06/20 04:45:24;;;;;;;5.47;1.17;;;12.30;99.90;;;;;;5086624;28;21223;-88
2021/06/20 04:47:51;;;;;;;4.82;1.13;;;12.30;99.90;;;;;;5082994;28;20416;-91
2021/06/20 04:50:18;;;;;;;4.75;1.17;;;12.40;99.90;;;;;;5077708;28;20396;-90
2021/06/20 04:52:45;;;;;;;4.72;0.98;;;12.30;99.90;;;;;;5076731;28;20471;-90
2021/06/20 04:55:13;;;;;;;4.33;1.20;;;12.20;99.90;;;;;;5085033;28;20389;-90
2021/06/20 04:57:40;;;;;;;5.68;1.13;;;12.20;99.90;;;;;;5082098;28;20434;-88
2021/06/20 05:00:09;;;;;;;3.95;1.08;;;12.10;99.90;;;;;;5087108;28;20400;-93
2021/06/20 05:02:37;;;;;;;5.53;1.10;;;12.20;99.90;;;;;;5079336;28;20445;-89
2021/06/20 05:05:05;;;;;;;5.03;1.13;;;12.20;99.90;;;;;;5082756;28;20388;-92
2021/06/20 05:07:33;;;;;;;4.75;1.10;;;12.20;99.90;;;;;;5086449;28;20808;-91
2021/06/20 05:10:00;;;;;;;5.45;1.48;;;12.20;99.90;;;;;;5088900;28;20874;-92
2021/06/20 05:12:27;;;;;;;5.63;1.23;;;12.30;99.90;;;;;;5087907;28;20412;-92
2021/06/20 05:14:54;;;;;;;4.20;1.17;;;12.30;99.90;;;;;;5088268;28;20766;-92
2021/06/20 05:17:21;;;;;;;7.50;1.55;;;12.30;99.90;;;;;;5094177;28;20922;-91
2021/06/20 05:19:48;;;;;;;7.20;1.88;;;12.30;99.90;;;;;;5085133;28;20463;-90
2021/06/20 05:22:17;;;;;;;5.55;1.60;;;12.20;99.90;;;;;;5089055;28;20403;-94
2021/06/20 05:24:44;;;;;;;5.68;1.45;;;12.10;99.90;;;;;;5086756;28;20465;-93
2021/06/20 05:27:11;;;;;;;6.05;1.90;;;12.10;99.90;;;;;;5077962;28;20862;-93
2021/06/20 05:29:39;;;;;;;8.23;1.80;;;12.10;99.90;;;;;;5072690;28;20437;-90
2021/06/20 05:32:06;;;;;;;8.47;1.83;;;12.00;99.90;;;;;;5084184;28;20853;-89
2021/06/20 05:34:33;;;;;;;10.85;1.73;;;12.00;99.90;;;;;;5086816;28;20394;-91
2021/06/20 05:37:00;;;;;;;6.82;1.50;;;12.00;99.90;;;;;;5086806;28;20527;-91
2021/06/20 05:39:27;;;;;;;6.50;1.60;;;12.00;99.90;;;;;;5081274;28;20385;-91
2021/06/20 05:41:54;;;;;;;6.13;1.87;;;12.00;99.90;;;;;;5091210;28;20419;-92
2021/06/20 05:44:22;;;;;;;6.82;1.73;;;12.00;99.90;;;;;;5087348;28;20392;-92
2021/06/20 05:46:49;;;;;;;7.30;2.05;;;12.00;99.90;;;;;;5085928;28;20438;-91
2021/06/20 05:49:16;;;;;;;10.77;2.38;;;11.90;99.90;;;;;;5079627;28;20380;-89
2021/06/20 05:51:42;;;;;;;8.80;2.40;;;11.90;99.90;;;;;;5090308;28;20468;-94
2021/06/20 05:54:09;;;;;;;9.75;2.30;;;11.80;99.90;;;;;;5088127;28;20388;-92
2021/06/20 05:56:37;;;;;;;9.70;2.30;;;11.70;99.90;;;;;;5091913;28;20461;-92
2021/06/20 05:59:05;;;;;;;9.35;2.25;;;11.70;99.90;;;;;;5091733;28;20391;-89
2021/06/20 06:01:32;;;;;;;9.40;2.28;;;11.70;99.90;;;;;;5083692;28;20477;-88
2021/06/20 06:03:59;;;;;;;9.73;2.10;;;11.70;99.90;;;;;;5086543;28;20392;-89
2021/06/20 06:06:26;;;;;;;10.70;2.20;;;11.60;99.90;;;;;;5087055;28;20495;-87
2021/06/20 06:08:53;;;;;;;10.88;2.42;;;11.60;99.90;;;;;;5092261;28;20390;-87
2021/06/20 06:11:20;;;;;;;10.32;2.30;;;11.50;99.90;;;;;;5086061;28;20380;-88
2021/06/20 06:13:47;;;;;;;13.25;2.38;;;11.50;99.90;;;;;;5081578;28;20396;-87
2021/06/20 06:16:14;;;;;;;7.47;2.50;;;11.50;99.90;;;;;;5090299;28;20388;-88
2021/06/20 06:18:41;;;;;;;11.50;3.10;;;11.40;99.90;;;;;;5091450;28;20755;-88
2021/06/20 06:21:09;;;;;;;12.35;3.00;;;11.40;99.90;;;;;;5089726;28;20402;-86
2021/06/20 06:23:36;;;;;;;11.00;2.35;;;11.40;99.90;;;;;;5091862;28;20440;-87
2021/06/20 06:26:04;;;;;;;12.05;2.40;;;11.40;99.90;;;;;;5090083;28;20388;-86
2021/06/20 06:28:31;;;;;;;9.60;2.22;;;11.40;99.90;;;;;;5089380;28;20466;-85
2021/06/20 06:30:58;;;;;;;11.95;2.95;;;11.30;99.90;;;;;;5082003;28;20936;-84
2021/06/20 06:33:25;;;;;;;8.77;2.00;;;11.30;99.90;;;;;;5087087;28;20400;-85
2021/06/20 06:35:52;;;;;;;7.55;1.80;;;11.30;99.90;;;;;;5090140;28;20400;-86
2021/06/20 06:38:19;;;;;;;9.90;2.35;;;11.20;99.90;;;;;;5089097;28;20400;-87
2021/06/20 06:40:46;;;;;;;7.00;1.80;;;11.20;99.90;;;;;;5088984;28;20397;-88
2021/06/20 06:43:12;;;;;;;9.15;2.00;;;11.30;99.90;;;;;;5088785;28;20396;-89
2021/06/20 06:45:40;;;;;;;8.75;1.95;;;11.30;99.90;;;;;;5092783;28;20377;-89
2021/06/20 06:48:07;;;;;;;7.97;1.80;;;11.20;99.90;;;;;;5093423;28;20409;-85
2021/06/20 06:50:34;;;;;;;10.05;2.22;;;11.20;99.90;;;;;;5094279;28;20391;-89
2021/06/20 06:53:02;;;;;;;7.82;2.10;;;11.10;99.90;;;;;;5091247;28;20652;-89
2021/06/20 06:55:30;;;;;;;7.45;1.80;;;11.10;99.90;;;;;;5092142;28;20384;-89
2021/06/20 06:57:58;;;;;;;9.25;2.20;;;11.00;99.90;;;;;;5087533;28;20479;-89
2021/06/20 07:00:25;;;;;;;7.90;2.10;;;11.00;99.90;;;;;;5083021;28;20426;-89
2021/06/20 07:02:54;;;;;;;7.43;2.30;;;11.00;99.90;;;;;;5082014;28;20395;-89
2021/06/20 07:05:21;;;;;;;6.23;2.33;;;11.00;99.90;;;;;;5093375;28;20388;-88
2021/06/20 07:07:48;;;;;;;8.55;2.58;;;11.00;99.90;;;;;;5090220;28;20499;-87
2021/06/20 07:10:15;;;;;;;8.05;2.60;;;11.00;99.90;;;;;;5089327;28;22169;-94
2021/06/20 07:12:42;;;;;;;11.30;2.53;;;11.00;99.90;;;;;;5085552;28;20415;-90
2021/06/20 07:15:10;;;;;;;10.88;2.63;;;11.00;99.90;;;;;;5088101;28;20392;-88
2021/06/20 07:17:38;;;;;;;7.78;2.08;;;11.00;99.90;;;;;;5088523;28;20388;-87
2021/06/20 07:20:09;;;;;;;9.27;2.28;;;11.00;99.90;;;;;;5090151;28;20384;-89
2021/06/20 07:22:38;;;;;;;8.98;2.33;;;11.00;99.90;;;;;;5069797;28;20907;-88
2021/06/20 07:25:06;;;;;;;9.93;2.85;;;11.00;99.90;;;;;;5090383;28;20423;-88
2021/06/20 07:27:35;;;;;;;7.75;2.60;;;10.90;99.90;;;;;;5090041;28;20447;-92
2021/06/20 07:30:11;;;;;;;7.67;3.00;;;10.80;99.90;;;;;;5089936;28;20402;-90
2021/06/20 07:32:40;;;;;;;10.18;3.58;;;10.80;99.90;;;;;;5069846;28;20389;-90
2021/06/20 07:35:08;;;;;;;10.65;3.00;;;10.80;99.90;;;;;;5069942;28;20406;-91
2021/06/20 07:37:36;;;;;;;11.30;3.50;;;10.80;99.90;;;;;;5069974;28;20390;-90
2021/06/20 07:40:06;;;;;;;8.18;3.30;;;10.80;99.90;;;;;;5082889;28;20386;-91
2021/06/20 07:42:33;;;;;;;8.97;2.73;;;10.90;99.90;;;;;;5090270;28;20410;-89
2021/06/20 07:45:00;;;;;;;9.93;2.88;;;10.90;99.90;;;;;;5089951;28;20377;-89
2021/06/20 07:47:28;;;;;;;9.80;2.70;;;10.90;99.90;;;;;;5090008;28;20761;-90
2021/06/20 07:49:55;;;;;;;10.90;2.92;;;10.90;99.90;;;;;;5091429;28;20399;-92
2021/06/20 07:52:21;;;;;;;10.23;3.53;;;10.90;99.90;;;;;;5106102;28;20378;-92
2021/06/20 07:54:51;;;;;;;11.80;2.85;;;10.90;99.90;;;;;;5102236;28;21310;-90
2021/06/20 07:57:20;;;;;;;8.52;2.90;;;10.80;99.90;;;;;;5087645;28;20468;-90
2021/06/20 07:59:48;;;;;;;11.77;2.88;;;10.80;99.90;;;;;;5084063;28;20401;-94
2021/06/20 08:02:16;;;;;;;10.32;3.30;;;10.80;99.90;;;;;;5087902;28;20396;-91
2021/06/20 08:04:43;;;;;;;8.20;2.40;;;10.70;99.90;;;;;;5080873;28;20450;-93
2021/06/20 08:07:11;;;;;;;10.93;2.60;;;10.70;99.90;;;;;;5088996;28;20484;-94
2021/06/20 08:09:38;;;;;;;8.98;3.05;;;10.70;99.90;;;;;;5079052;28;20455;-93
2021/06/20 08:12:08;;;;;;;9.57;2.72;;;10.60;99.90;;;;;;5091949;28;21116;-91
2021/06/20 08:14:36;;;;;;;9.07;3.00;;;10.60;99.90;;;;;;5093464;28;20932;-93
2021/06/20 08:17:04;;;;;;;13.20;2.78;;;10.70;99.90;;;;;;5087236;28;20859;-95
2021/06/20 08:19:32;;;;;;;9.13;2.50;;;10.70;99.90;;;;;;5091851;28;20768;-93
2021/06/20 08:21:59;;;;;;;11.02;2.70;;;10.80;99.90;;;;;;5090690;28;20403;-94
2021/06/20 08:24:26;;;;;;;9.95;2.88;;;10.80;99.90;;;;;;5088569;28;20441;-93
2021/06/20 08:26:53;;;;;;;9.70;2.53;;;10.70;99.90;;;;;;5086798;28;20405;-91
2021/06/20 08:29:20;;;;;;;10.93;3.00;;;10.70;99.90;;;;;;5088118;28;20441;-91
2021/06/20 08:31:47;;;;;;;11.38;3.45;;;10.70;99.90;;;;;;5056423;28;20456;-92
2021/06/20 08:34:14;;;;;;;17.60;4.55;;;10.70;99.90;;;;;;5086428;28;20400;-93
2021/06/20 08:36:41;;;;;;;11.90;3.37;;;10.60;99.90;;;;;;5080281;28;20873;-94
2021/06/20 08:39:09;;;;;;;13.02;3.03;;;10.60;99.90;;;;;;5089467;28;20731;-90
2021/06/20 08:41:43;;;;;;;10.37;2.57;;;10.60;99.90;;;;;;5087030;28;20441;-93
2021/06/20 08:44:28;;;;;;;11.43;2.88;;;10.70;99.90;;;;;;5086423;28;20390;-88
2021/06/20 08:46:56;;;;;;;11.98;2.90;;;10.70;99.90;;;;;;5085025;28;20408;-89
2021/06/20 08:49:24;;;;;;;9.48;2.60;;;10.70;99.90;;;;;;5086201;28;20388;-88
2021/06/20 08:51:53;;;;;;;13.07;2.73;;;10.70;99.90;;;;;;5080453;28;20401;-94
2021/06/20 08:54:23;;;;;;;10.13;2.80;;;10.60;99.90;;;;;;5070910;28;20377;-92
2021/06/20 08:56:51;;;;;;;9.02;2.85;;;10.70;99.90;;;;;;5077134;28;20388;-90
2021/06/20 08:59:20;;;;;;;16.00;3.30;;;10.70;99.90;;;;;;5085699;28;20384;-90
2021/06/20 09:01:48;;;;;;;12.85;2.97;;;10.70;99.90;;;;;;5086363;28;20489;-90
2021/06/20 09:04:27;;;;;;;12.60;3.17;;;10.70;99.90;;;;;;5083413;28;20388;-91
2021/06/20 09:06:54;;;;;;;13.98;3.40;;;10.60;99.90;;;;;;5095091;28;20481;-92
2021/06/20 09:09:33;;;;;;;14.02;3.75;;;10.60;99.90;;;;;;5090818;28;20392;-92
2021/06/20 09:12:08;;;;;;;16.20;4.15;;;10.60;99.90;;;;;;5084989;28;20467;-92
2021/06/20 09:14:43;;;;;;;10.85;4.93;;;10.60;99.90;;;;;;5092693;28;20491;-92
2021/06/20 09:17:10;;;;;;;11.30;4.40;;;10.60;99.90;;;;;;5091543;28;21972;-91
2021/06/20 09:19:38;;;;;;;12.57;3.88;;;10.70;99.90;;;;;;5087385;28;20453;-93
2021/06/20 09:22:10;;;;;;;12.90;3.70;;;10.60;99.90;;;;;;5092403;28;20403;-92
2021/06/20 09:24:39;;;;;;;8.48;3.78;;;10.70;99.90;;;;;;5092518;28;20380;-94
2021/06/20 09:27:07;;;;;;;9.63;4.55;;;10.70;99.90;;;;;;5090952;28;20494;-90
2021/06/20 09:29:37;;;;;;;10.98;4.22;;;10.70;99.90;;;;;;5090859;28;20384;-91
2021/06/20 09:32:08;;;;;;;9.30;3.80;;;10.70;99.90;;;;;;5082364;28;20536;-91
2021/06/20 09:34:46;;;;;;;8.85;2.97;;;10.70;99.90;;;;;;5095499;28;20391;-93
2021/06/20 09:37:14;;;;;;;8.15;3.05;;;10.70;99.90;;;;;;5093308;28;20364;-93
2021/06/20 09:39:42;;;;;;;12.07;3.55;;;10.70;99.90;;;;;;5093596;28;20396;-93
2021/06/20 09:42:17;;;;;;;9.93;3.30;;;10.70;99.90;;;;;;5098552;28;20403;-93
2021/06/20 09:44:54;;;;;;;7.53;3.30;;;10.70;99.90;;;;;;5096723;28;20384;-95
2021/06/20 09:47:23;;;;;;;7.70;3.15;;;10.70;99.90;;;;;;5096160;28;20779;-95
2021/06/20 09:49:53;;;;;;;9.52;3.05;;;10.70;99.90;;;;;;5083569;28;21031;-96
2021/06/20 09:52:46;;;;;;;9.27;2.90;;;10.70;99.90;;;;;;5091259;28;20452;-95
2021/06/20 09:55:14;;;;;;;8.23;2.60;;;10.70;99.90;;;;;;5094190;28;20399;-96
2021/06/20 09:57:43;;;;;;;7.68;2.55;;;10.70;99.90;;;;;;5096959;28;20402;-94
2021/06/20 10:00:12;;;;;;;10.05;3.00;;;10.70;99.90;;;;;;5102513;28;20383;-89
2021/06/20 10:02:40;;;;;;;7.30;2.75;;;10.70;99.90;;;;;;5101738;28;20793;-94
2021/06/20 10:05:11;;;;;;;8.98;2.47;;;10.70;99.90;;;;;;5102926;28;20384;-93
2021/06/20 10:07:39;;;;;;;6.78;2.47;;;10.80;99.90;;;;;;5092804;28;20403;-96
2021/06/20 10:10:09;;;;;;;6.78;2.17;;;10.80;99.90;;;;;;5082674;28;20390;-96
2021/06/20 10:12:36;;;;;;;4.80;1.90;;;10.80;99.90;;;;;;5102495;28;20368;-85
2021/06/20 10:15:10;;;;;;;8.32;2.45;;;10.80;99.90;;;;;;5099966;28;20731;-96
2021/06/20 10:17:40;;;;;;;7.85;2.30;;;10.70;99.90;;;;;;5092432;28;20929;-94
2021/06/20 10:20:10;;;;;;;7.33;2.27;;;10.70;99.90;;;;;;5088046;28;20395;-93
2021/06/20 10:22:40;;;;;;;7.40;2.58;;;10.70;99.90;;;;;;5088874;28;20480;-95
2021/06/20 10:25:10;;;;;;;8.23;2.40;;;10.60;99.90;;;;;;5083007;28;20390;-94
2021/06/20 10:27:44;;;;;;;8.07;2.72;;;10.50;99.90;;;;;;5097547;28;20409;-93
2021/06/20 10:30:16;;;;;;;7.53;2.40;;;10.40;99.90;;;;;;5089184;28;20411;-94
2021/06/20 10:32:47;;;;;;;7.00;2.40;;;10.40;99.90;;;;;;5084593;28;20412;-95
2021/06/20 10:35:20;;;;;;;9.70;2.60;;;10.30;99.90;;;;;;5089553;28;20400;-94
2021/06/20 10:37:49;;;;;;;7.63;2.60;;;10.30;99.90;;;;;;5093196;28;20381;-95
2021/06/20 10:40:49;;;;;;;6.77;2.40;;;10.20;99.90;;;;;;5087608;28;20373;-96
2021/06/20 10:43:20;;;;;;;8.73;2.40;;;10.10;99.90;;;;;;5093628;28;20478;-94
2021/06/20 10:45:48;;;;;;;11.25;2.45;;;10.10;99.90;;;;;;5089263;28;20408;-94
2021/06/20 10:48:21;;;;;;;8.88;2.85;;;10.00;99.90;;;;;;5087645;28;20877;-90
2021/06/20 10:50:52;;;;;;;11.32;3.15;;;10.00;99.90;;;;;;5076517;28;20392;-93
2021/06/20 10:53:21;;;;;;;5.88;2.40;;;10.00;99.90;;;;;;5090150;28;20816;-92
2021/06/20 10:55:57;;;;;;;8.07;2.05;;;10.00;99.90;;;;;;5097060;28;20379;-94
2021/06/20 10:58:32;;;;;;;8.00;1.93;;;10.00;99.90;;;;;;5087767;28;20364;-91
2021/06/20 11:01:18;;;;;;;6.13;2.17;;;9.80;99.90;;;;;;5088964;28;20376;-93
2021/06/20 11:03:54;;;;;;;8.48;1.98;;;9.80;99.90;;;;;;5090427;28;20798;-91
2021/06/20 11:06:23;;;;;;;7.43;2.00;;;9.60;99.90;;;;;;5084609;28;20391;-90
2021/06/20 11:09:05;;;;;;;6.70;2.08;;;9.60;99.90;;;;;;5088581;28;20384;-92
2021/06/20 11:11:50;;;;;;;9.07;2.03;;;9.50;99.90;;;;;;5089763;28;20383;-91
2021/06/20 11:14:18;;;;;;;6.57;1.90;;;9.50;99.90;;;;;;5088026;28;20901;-90
2021/06/20 11:16:50;;;;;;;6.50;2.00;;;9.40;99.90;;;;;;5089408;28;20487;-92
2021/06/20 11:19:20;;;;;;;6.82;1.83;;;9.50;99.90;;;;;;5089537;28;20442;-90
2021/06/20 11:22:04;;;;;;;8.50;1.70;;;9.30;99.90;;;;;;5082632;28;20403;-88
2021/06/20 11:24:33;;;;;;;8.57;2.00;;;9.30;99.90;;;;;;5097768;28;20396;-94
2021/06/20 11:27:12;;;;;;;4.78;1.60;;;9.30;99.90;;;;;;5077778;28;20398;-94
2021/06/20 11:29:45;;;;;;;8.20;1.77;;;9.30;99.90;;;;;;5091830;28;20789;-90
2021/06/20 11:32:23;;;;;;;5.93;1.75;;;9.30;99.90;;;;;;5098889;28;20368;-96
2021/06/20 11:34:52;;;;;;;11.68;2.38;;;9.30;99.90;;;;;;5100568;28;20397;-93
2021/06/20 11:37:23;;;;;;;6.85;1.90;;;9.30;99.90;;;;;;5075574;28;20799;-93
2021/06/20 11:39:54;;;;;;;7.53;1.75;;;9.30;99.90;;;;;;5076503;28;20447;-96
2021/06/20 11:42:29;;;;;;;11.95;2.10;;;9.30;99.90;;;;;;5094413;28;20413;-96
2021/06/20 11:45:01;;;;;;;5.57;1.70;;;9.20;99.90;;;;;;5094981;28;20401;-93
2021/06/20 11:47:33;;;;;;;9.15;1.77;;;9.30;99.90;;;;;;5082252;28;20420;-96
2021/06/20 11:50:10;;;;;;;8.82;1.95;;;9.30;99.90;;;;;;5087205;28;20432;-96
2021/06/20 11:52:39;;;;;;;7.87;2.00;;;9.30;99.90;;;;;;5098210;28;20483;-96
2021/06/20 11:55:26;;;;;;;8.37;2.20;;;9.20;99.90;;;;;;5099119;28;20379;-96
2021/06/20 11:57:54;;;;;;;7.70;1.75;;;9.20;99.90;;;;;;5093494;28;20384;-96
2021/06/20 12:00:25;;;;;;;5.90;1.90;;;9.20;99.90;;;;;;5097938;28;20390;-95
2021/06/20 12:03:04;;;;;;;6.80;1.73;;;9.20;99.90;;;;;;5091615;28;20386;-92
2021/06/20 12:05:32;;;;;;;5.30;1.63;;;9.10;99.90;;;;;;5086748;28;20403;-95
2021/06/20 12:08:06;;;;;;;6.22;1.50;;;9.10;99.90;;;;;;5103574;28;20395;-95
2021/06/20 12:10:37;;;;;;;7.65;1.50;;;9.10;99.90;;;;;;5086885;28;20434;-91
2021/06/20 12:13:07;;;;;;;8.60;1.83;;;9.10;99.90;;;;;;5088015;28;20767;-92
2021/06/20 12:15:37;;;;;;;5.32;1.38;;;9.00;99.90;;;;;;5095411;28;20459;-92
2021/06/20 12:18:08;;;;;;;6.68;1.60;;;9.10;99.90;;;;;;5096277;28;20372;-93
2021/06/20 12:20:40;;;;;;;7.77;2.20;;;9.00;99.90;;;;;;5093263;28;20423;-91
2021/06/20 12:23:08;;;;;;;8.57;1.70;;;9.00;99.90;;;;;;5092595;28;20376;-88
2021/06/20 12:25:49;;;;;;;7.65;1.38;;;9.10;99.90;;;;;;5093227;28;20488;-93
2021/06/20 12:28:18;;;;;;;6.80;1.30;;;9.10;99.90;;;;;;5092760;28;20408;-88
2021/06/20 12:30:48;;;;;;;9.48;1.40;;;9.10;99.90;;;;;;5092629;28;20383;-92
2021/06/20 12:33:18;;;;;;;5.63;1.37;;;9.10;99.90;;;;;;5093624;28;20464;-90
2021/06/20 12:35:54;;;;;;;6.35;1.20;;;9.10;99.90;;;;;;5095942;28;20433;-92
2021/06/20 12:38:24;;;;;;;5.82;1.23;;;9.10;99.90;;;;;;5089740;28;20389;-90
2021/06/20 12:40:52;;;;;;;6.43;1.50;;;9.10;99.90;;;;;;5092609;28;20404;-88
2021/06/20 12:43:21;;;;;;;6.75;1.63;;;9.00;99.90;;;;;;5094292;28;20871;-90
2021/06/20 12:46:06;;;;;;;4.00;1.52;;;9.00;99.90;;;;;;5092067;28;21178;-90
2021/06/20 12:48:42;;;;;;;6.70;1.63;;;9.00;99.90;;;;;;5093701;28;20499;-91
2021/06/20 12:51:11;;;;;;;5.20;1.65;;;9.00;99.90;;;;;;5095200;28;20367;-91
2021/06/20 12:53:44;;;;;;;4.72;1.48;;;8.90;99.90;;;;;;5093251;28;20395;-88
2021/06/20 12:56:26;;;;;;;7.00;1.73;;;8.90;99.90;;;;;;5086875;28;20417;-92